createdAt,value
2017-11-17T00:01:41.255Z,79.87
2017-11-17T00:04:08.697Z,67.23
2017-11-17T00:06:36.907Z,54.97
2017-11-17T00:09:04.334Z,54.27
2017-11-17T00:11:31.759Z,51.60
2017-11-17T00:13:59.187Z,55.93
2017-11-17T00:16:26.624Z,54.57
2017-11-17T00:18:54.052Z,54.80
2017-11-17T00:21:22.265Z,59.47
2017-11-17T00:23:49.703Z,55.83
2017-11-17T00:26:17.149Z,51.53
2017-11-17T00:28:44.577Z,52.03
2017-11-17T00:31:12.022Z,47.33
2017-11-17T00:33:39.454Z,52.97
2017-11-17T00:36:06.884Z,56.63
2017-11-17T00:38:34.326Z,55.23
2017-11-17T00:41:02.521Z,56.90
2017-11-17T00:43:29.944Z,67.90
2017-11-17T00:45:58.160Z,51.70
2017-11-17T00:48:25.588Z,58.30
2017-11-17T00:50:53.784Z,53.60
2017-11-17T00:53:21.216Z,68.47
2017-11-17T00:55:49.417Z,48.93
2017-11-17T00:58:16.851Z,62.17
2017-11-17T01:00:45.060Z,58.10
2017-11-17T01:03:12.485Z,57.63
2017-11-17T01:05:40.673Z,49.83
2017-11-17T01:08:08.124Z,63.83
2017-11-17T01:10:35.560Z,51.17
2017-11-17T01:13:02.984Z,49.23
2017-11-17T01:15:30.420Z,59.00
2017-11-17T01:17:57.866Z,57.90
2017-11-17T01:20:25.293Z,54.73
2017-11-17T01:22:53.497Z,53.57
2017-11-17T01:25:20.925Z,46.63
2017-11-17T01:27:49.136Z,43.87
2017-11-17T01:30:16.549Z,54.50
2017-11-17T01:32:43.985Z,54.73
2017-11-17T01:35:12.385Z,50.47
2017-11-17T01:37:39.838Z,46.63
2017-11-17T01:40:07.265Z,47.33
2017-11-17T01:42:34.707Z,46.90
2017-11-17T01:45:02.141Z,51.07
2017-11-17T01:47:29.573Z,54.90
2017-11-17T01:49:57.022Z,54.20
2017-11-17T01:52:24.450Z,54.40
2017-11-17T01:54:51.893Z,54.60
2017-11-17T01:57:19.334Z,54.03
2017-11-17T01:59:46.771Z,51.90
2017-11-17T02:02:20.796Z,57.60
2017-11-17T02:04:48.236Z,45.63
2017-11-17T02:07:16.429Z,59.97
2017-11-17T02:09:43.864Z,52.50
2017-11-17T02:12:12.078Z,55.37
2017-11-17T02:14:39.520Z,60.40
2017-11-17T02:17:06.949Z,54.20
2017-11-17T02:19:45.752Z,55.00
2017-11-17T02:22:13.178Z,52.80
2017-11-17T02:24:40.630Z,60.50
2017-11-17T02:27:08.066Z,57.77
2017-11-17T02:29:35.497Z,57.80
2017-11-17T02:32:10.392Z,57.50
2017-11-17T02:34:37.833Z,62.13
2017-11-17T02:37:05.260Z,58.00
2017-11-17T02:39:33.449Z,66.23
2017-11-17T02:42:00.876Z,56.97
2017-11-17T02:44:29.096Z,70.83
2017-11-17T02:46:56.530Z,70.43
2017-11-17T02:49:23.963Z,59.23
2017-11-17T02:51:52.160Z,67.77
2017-11-17T02:54:19.598Z,60.23
2017-11-17T02:56:47.816Z,58.33
2017-11-17T02:59:15.245Z,71.67
2017-11-17T03:01:42.700Z,62.03
2017-11-17T03:04:12.902Z,59.93
2017-11-17T03:06:40.342Z,61.60
2017-11-17T03:09:07.788Z,69.53
2017-11-17T03:11:35.233Z,66.07
2017-11-17T03:14:02.665Z,61.77
2017-11-17T03:16:30.142Z,64.60
2017-11-17T03:18:57.578Z,70.47
2017-11-17T03:21:25.014Z,67.23
2017-11-17T03:23:53.225Z,66.23
2017-11-17T03:26:20.669Z,61.33
2017-11-17T03:28:48.102Z,63.13
2017-11-17T03:31:16.340Z,64.07
2017-11-17T03:33:50.565Z,71.17
2017-11-17T03:36:18.005Z,62.00
2017-11-17T03:38:45.446Z,59.93
2017-11-17T03:41:12.892Z,70.13
2017-11-17T03:43:40.318Z,50.90
2017-11-17T03:46:08.521Z,69.20
2017-11-17T03:48:35.957Z,53.67
2017-11-17T03:51:04.160Z,64.30
2017-11-17T03:53:31.585Z,64.90
2017-11-17T03:55:59.802Z,68.80
2017-11-17T03:58:27.239Z,62.07
2017-11-17T04:00:54.670Z,63.83
2017-11-17T04:03:22.885Z,64.07
2017-11-17T04:05:50.311Z,65.60
2017-11-17T04:08:18.531Z,59.43
2017-11-17T04:10:45.981Z,57.10
2017-11-17T04:13:13.422Z,68.17
2017-11-17T04:15:41.861Z,59.00
2017-11-17T04:18:09.350Z,58.03
2017-11-17T04:20:38.726Z,65.23
2017-11-17T04:23:07.114Z,60.20
2017-11-17T04:25:35.312Z,61.67
2017-11-17T04:28:03.762Z,55.50
2017-11-17T04:30:31.209Z,56.03
2017-11-17T04:32:58.733Z,57.13
2017-11-17T04:35:27.160Z,59.57
2017-11-17T04:37:54.586Z,68.97
2017-11-17T04:40:22.090Z,70.00
2017-11-17T04:42:49.514Z,69.40
2017-11-17T04:45:16.945Z,70.80
2017-11-17T04:47:44.399Z,77.30
2017-11-17T04:50:11.810Z,86.60
2017-11-17T04:52:40.023Z,73.20
2017-11-17T04:55:08.720Z,72.70
2017-11-17T04:57:36.145Z,85.27
2017-11-17T05:00:03.590Z,80.47
2017-11-17T05:02:31.794Z,80.30
2017-11-17T05:05:01.258Z,78.73
2017-11-17T05:07:33.347Z,75.57
2017-11-17T05:10:00.785Z,79.40
2017-11-17T05:12:28.981Z,79.23
2017-11-17T05:14:56.411Z,79.33
2017-11-17T05:17:24.619Z,60.73
2017-11-17T05:19:52.047Z,65.77
2017-11-17T05:22:20.263Z,70.70
2017-11-17T05:24:47.690Z,69.13
2017-11-17T05:27:15.909Z,75.20
2017-11-17T05:29:43.354Z,65.50
2017-11-17T05:32:10.777Z,64.47
2017-11-17T05:34:39.002Z,76.90
2017-11-17T05:37:06.440Z,68.73
2017-11-17T05:39:33.879Z,79.93
2017-11-17T05:42:12.331Z,75.30
2017-11-17T05:44:39.773Z,67.53
2017-11-17T05:47:07.202Z,67.23
2017-11-17T05:49:34.643Z,66.70
2017-11-17T05:52:04.758Z,75.07
2017-11-17T05:54:32.214Z,76.40
2017-11-17T05:56:59.662Z,66.23
2017-11-17T05:59:27.102Z,83.97
2017-11-17T06:01:54.543Z,81.67
2017-11-17T06:04:21.989Z,75.17
2017-11-17T06:06:49.429Z,84.77
2017-11-17T06:09:16.870Z,62.90
2017-11-17T06:11:45.066Z,74.87
2017-11-17T06:14:12.524Z,73.40
2017-11-17T06:16:39.948Z,65.33
2017-11-17T06:19:08.146Z,72.93
2017-11-17T06:21:35.582Z,70.17
2017-11-17T06:24:03.779Z,64.70
2017-11-17T06:26:32.006Z,76.30
2017-11-17T06:28:59.449Z,86.97
2017-11-17T06:31:26.887Z,71.03
2017-11-17T06:33:54.339Z,76.83
2017-11-17T06:36:28.485Z,74.60
2017-11-17T06:38:55.944Z,80.43
2017-11-17T06:41:40.273Z,79.43
2017-11-17T06:44:07.710Z,84.97
2017-11-17T06:46:35.156Z,73.57
2017-11-17T06:49:03.364Z,93.13
2017-11-17T06:51:31.907Z,97.63
2017-11-17T06:54:00.110Z,87.10
2017-11-17T06:56:27.721Z,92.17
2017-11-17T06:58:55.301Z,84.00
2017-11-17T07:01:23.506Z,83.07
2017-11-17T07:03:50.944Z,73.00
2017-11-17T07:06:18.383Z,91.40
2017-11-17T07:08:50.338Z,75.93
2017-11-17T07:11:17.769Z,81.30
2017-11-17T07:13:45.249Z,78.57
2017-11-17T07:16:12.695Z,96.40
2017-11-17T07:18:40.125Z,101.33
2017-11-17T07:21:07.630Z,89.03
2017-11-17T07:23:35.139Z,83.10
2017-11-17T07:26:02.549Z,99.20
2017-11-17T07:28:30.769Z,83.37
2017-11-17T07:30:58.193Z,101.10
2017-11-17T07:33:25.830Z,91.10
2017-11-17T07:35:53.266Z,81.07
2017-11-17T07:38:20.697Z,100.43
2017-11-17T07:40:48.133Z,77.93
2017-11-17T07:43:19.054Z,110.23
2017-11-17T07:45:47.263Z,77.90
2017-11-17T07:48:14.700Z,84.07
2017-11-17T07:50:42.129Z,88.13
2017-11-17T07:53:09.571Z,91.10
2017-11-17T07:55:37.006Z,82.70
2017-11-17T07:58:05.213Z,97.23
2017-11-17T08:00:32.638Z,96.27
2017-11-17T08:03:00.085Z,83.70
2017-11-17T08:05:27.527Z,104.07
2017-11-17T08:07:55.089Z,90.77
2017-11-17T08:10:23.279Z,106.30
2017-11-17T08:12:50.707Z,89.80
2017-11-17T08:15:18.166Z,110.20
2017-11-17T08:17:57.475Z,88.43
2017-11-17T08:20:24.945Z,93.30
2017-11-17T08:22:54.252Z,95.87
2017-11-17T08:25:21.666Z,100.70
2017-11-17T08:27:49.101Z,101.90
2017-11-17T08:30:16.560Z,123.03
2017-11-17T08:32:43.993Z,104.57
2017-11-17T08:35:11.465Z,99.73
2017-11-17T08:37:38.901Z,90.37
2017-11-17T08:40:06.338Z,113.37
2017-11-17T08:42:34.542Z,99.73
2017-11-17T08:45:01.975Z,102.80
2017-11-17T08:47:30.177Z,104.60
2017-11-17T08:49:57.606Z,111.13
2017-11-17T08:52:25.856Z,102.03
2017-11-17T08:54:53.453Z,104.20
2017-11-17T08:57:20.888Z,94.37
2017-11-17T08:59:48.335Z,116.97
2017-11-17T09:02:15.802Z,99.37
2017-11-17T09:04:43.250Z,113.07
2017-11-17T09:07:10.678Z,123.63
2017-11-17T09:09:38.114Z,123.73
2017-11-17T09:12:05.557Z,111.47
2017-11-17T09:14:32.997Z,124.20
2017-11-17T09:17:01.210Z,114.03
2017-11-17T09:19:29.346Z,118.33
2017-11-17T09:21:56.770Z,115.07
2017-11-17T09:24:26.213Z,107.57
2017-11-17T09:26:54.564Z,101.97
2017-11-17T09:29:22.018Z,115.20
2017-11-17T09:31:49.492Z,98.63
2017-11-17T09:34:16.926Z,121.47
2017-11-17T09:36:44.367Z,109.07
2017-11-17T09:39:11.811Z,120.30
2017-11-17T09:41:39.314Z,133.40
2017-11-17T09:44:07.450Z,109.80
2017-11-17T09:46:34.957Z,142.83
2017-11-17T09:49:03.234Z,107.60
2017-11-17T09:51:31.560Z,99.77
2017-11-17T09:53:59.018Z,113.70
2017-11-17T09:56:26.465Z,135.70
2017-11-17T09:58:54.582Z,106.57
2017-11-17T10:01:22.025Z,129.40
2017-11-17T10:04:01.367Z,112.20
2017-11-17T10:06:29.890Z,101.43
2017-11-17T10:08:59.128Z,107.70
2017-11-17T10:11:26.553Z,128.40
2017-11-17T10:13:53.994Z,133.90
2017-11-17T10:16:23.402Z,111.10
2017-11-17T10:18:50.854Z,112.37
2017-11-17T10:21:19.065Z,102.13
2017-11-17T10:23:46.506Z,128.87
2017-11-17T10:26:13.946Z,105.03
2017-11-17T10:28:42.142Z,111.77
2017-11-17T10:31:09.701Z,140.20
2017-11-17T10:33:38.166Z,89.10
2017-11-17T10:36:11.555Z,100.33
2017-11-17T10:38:39.771Z,107.00
2017-11-17T10:41:07.195Z,114.73
2017-11-17T10:43:46.298Z,111.03
2017-11-17T10:46:13.751Z,114.70
2017-11-17T10:48:41.213Z,116.33
2017-11-17T10:51:08.678Z,104.20
2017-11-17T10:53:36.170Z,125.33
2017-11-17T10:56:04.390Z,119.67
2017-11-17T10:58:31.838Z,104.53
2017-11-17T11:00:59.302Z,107.60
2017-11-17T11:03:26.746Z,106.70
2017-11-17T11:05:54.263Z,119.97
2017-11-17T11:08:22.490Z,126.20
2017-11-17T11:10:55.652Z,130.83
2017-11-17T11:13:23.103Z,113.70
2017-11-17T11:15:50.614Z,125.73
2017-11-17T11:18:18.041Z,125.87
2017-11-17T11:20:45.476Z,119.00
2017-11-17T11:23:12.912Z,108.47
2017-11-17T11:25:41.121Z,103.73
2017-11-17T11:28:08.556Z,99.03
2017-11-17T11:30:37.010Z,111.10
2017-11-17T11:33:04.450Z,119.43
2017-11-17T11:35:31.886Z,144.00
2017-11-17T11:37:59.342Z,115.00
2017-11-17T11:40:26.775Z,93.50
2017-11-17T11:42:54.204Z,95.53
2017-11-17T11:45:22.416Z,108.70
2017-11-17T11:47:49.841Z,99.73
2017-11-17T11:50:18.053Z,108.30
2017-11-17T11:52:45.507Z,120.27
2017-11-17T11:55:12.931Z,96.17
2017-11-17T11:57:40.355Z,95.57
2017-11-17T12:00:07.794Z,109.27
2017-11-17T12:02:35.221Z,93.50
2017-11-17T12:05:02.658Z,81.03
2017-11-17T12:07:30.858Z,93.33
2017-11-17T12:09:59.165Z,101.73
2017-11-17T12:12:26.661Z,83.70
2017-11-17T12:14:54.855Z,89.03
2017-11-17T12:17:22.330Z,110.77
2017-11-17T12:19:49.777Z,86.23
2017-11-17T12:22:17.226Z,97.63
2017-11-17T12:24:44.655Z,102.37
2017-11-17T12:27:12.083Z,95.00
2017-11-17T12:29:39.523Z,92.63
2017-11-17T12:32:14.788Z,105.67
2017-11-17T12:34:48.438Z,75.03
2017-11-17T12:37:15.949Z,94.17
2017-11-17T12:39:43.413Z,83.67
2017-11-17T12:42:10.858Z,89.63
2017-11-17T12:44:48.255Z,99.83
2017-11-17T12:47:16.477Z,95.73
2017-11-17T12:49:43.933Z,87.57
2017-11-17T12:52:11.370Z,82.33
2017-11-17T12:54:39.674Z,94.20
2017-11-17T12:57:07.106Z,89.93
2017-11-17T12:59:35.307Z,91.90
2017-11-17T13:02:02.732Z,77.30
2017-11-17T13:04:30.939Z,81.07
2017-11-17T13:07:01.947Z,87.37
2017-11-17T13:09:29.414Z,90.63
2017-11-17T13:11:57.613Z,93.50
2017-11-17T13:14:25.050Z,89.63
2017-11-17T13:16:53.246Z,89.60
2017-11-17T13:19:20.676Z,97.53
2017-11-17T13:21:48.870Z,91.87
2017-11-17T13:24:16.297Z,98.27
2017-11-17T13:26:44.587Z,99.73
2017-11-17T13:29:12.789Z,93.27
2017-11-17T13:31:41.235Z,90.33
2017-11-17T13:34:09.437Z,110.83
2017-11-17T13:36:36.869Z,93.50
2017-11-17T13:39:05.077Z,102.03
2017-11-17T13:41:32.514Z,97.30
2017-11-17T13:44:00.714Z,90.07
2017-11-17T13:46:28.155Z,89.97
2017-11-17T13:48:55.585Z,100.83
2017-11-17T13:51:23.870Z,112.17
2017-11-17T13:53:55.833Z,93.93
2017-11-17T13:56:24.037Z,107.37
2017-11-17T13:58:51.486Z,103.07
2017-11-17T14:01:25.235Z,107.60
2017-11-17T14:03:52.673Z,98.83
2017-11-17T14:06:20.104Z,93.10
2017-11-17T14:08:51.525Z,123.03
2017-11-17T14:11:19.739Z,101.37
2017-11-17T14:14:00.725Z,98.07
2017-11-17T14:16:28.145Z,129.87
2017-11-17T14:18:56.350Z,95.47
2017-11-17T14:21:24.797Z,93.97
2017-11-17T14:23:53.074Z,116.43
2017-11-17T14:26:21.419Z,106.43
2017-11-17T14:28:48.970Z,116.43
2017-11-17T14:31:16.458Z,107.57
2017-11-17T14:33:43.894Z,123.00
2017-11-17T14:36:11.324Z,86.70
2017-11-17T14:38:39.541Z,104.80
2017-11-17T14:41:06.995Z,112.43
2017-11-17T14:43:34.477Z,111.03
2017-11-17T14:46:02.675Z,100.57
2017-11-17T14:48:30.121Z,122.47
2017-11-17T14:50:57.549Z,118.50
2017-11-17T14:53:25.020Z,114.30
2017-11-17T14:55:53.210Z,98.60
2017-11-17T14:58:20.648Z,115.03
2017-11-17T15:00:49.837Z,131.93
2017-11-17T15:03:18.041Z,108.17
2017-11-17T15:05:45.494Z,111.70
2017-11-17T15:08:13.690Z,113.27
2017-11-17T15:10:41.118Z,107.20
2017-11-17T15:13:10.317Z,116.00
2017-11-17T15:15:43.918Z,119.03
2017-11-17T15:18:12.130Z,113.10
2017-11-17T15:20:41.707Z,102.73
2017-11-17T15:23:09.892Z,106.37
2017-11-17T15:25:37.334Z,107.57
2017-11-17T15:28:05.536Z,116.60
2017-11-17T15:30:32.993Z,100.27
2017-11-17T15:33:00.434Z,112.13
2017-11-17T15:35:28.697Z,120.80
2017-11-17T15:37:56.143Z,99.97
2017-11-17T15:40:24.346Z,109.33
2017-11-17T15:42:51.774Z,99.00
2017-11-17T15:45:19.234Z,124.03
2017-11-17T15:47:47.429Z,113.13
2017-11-17T15:50:14.883Z,117.73
2017-11-17T15:52:42.320Z,101.17
2017-11-17T15:55:09.774Z,113.70
2017-11-17T15:57:37.989Z,103.60
2017-11-17T16:00:07.496Z,110.37
2017-11-17T16:02:35.706Z,110.27
2017-11-17T16:05:03.168Z,116.97
2017-11-17T16:07:30.642Z,109.43
2017-11-17T16:09:58.850Z,115.27
2017-11-17T16:12:27.201Z,100.20
2017-11-17T16:14:55.403Z,110.00
2017-11-17T16:17:22.875Z,122.47
2017-11-17T16:19:50.293Z,115.70
2017-11-17T16:22:18.493Z,114.07
2017-11-17T16:24:45.938Z,112.10
2017-11-17T16:27:13.378Z,115.77
2017-11-17T16:29:41.581Z,116.37
2017-11-17T16:32:09.021Z,131.63
2017-11-17T16:34:37.226Z,124.80
2017-11-17T16:37:04.695Z,113.97
2017-11-17T16:39:32.110Z,141.23
2017-11-17T16:42:00.322Z,141.40
2017-11-17T16:44:27.754Z,127.30
2017-11-17T16:46:55.193Z,132.70
2017-11-17T16:49:23.393Z,128.90
2017-11-17T16:51:50.838Z,118.60
2017-11-17T16:54:19.043Z,124.17
2017-11-17T16:56:46.478Z,120.33
2017-11-17T16:59:13.925Z,133.60
2017-11-17T17:01:42.126Z,131.73
2017-11-17T17:04:09.561Z,125.57
2017-11-17T17:06:37.003Z,136.40
2017-11-17T17:09:05.214Z,138.10
2017-11-17T17:11:32.691Z,129.70
2017-11-17T17:14:00.144Z,128.03
2017-11-17T17:16:27.591Z,115.60
2017-11-17T17:18:55.018Z,122.00
2017-11-17T17:21:22.463Z,133.47
2017-11-17T17:23:49.902Z,125.80
2017-11-17T17:26:17.337Z,135.27
2017-11-17T17:28:44.794Z,163.70
2017-11-17T17:31:12.239Z,140.33
2017-11-17T17:33:39.681Z,144.27
2017-11-17T17:36:07.106Z,141.23
2017-11-17T17:38:35.326Z,154.40
2017-11-17T17:41:02.762Z,154.93
2017-11-17T17:43:30.206Z,161.93
2017-11-17T17:45:57.641Z,153.43
2017-11-17T17:48:25.102Z,155.53
2017-11-17T17:50:52.530Z,147.47
2017-11-17T17:53:19.979Z,149.37
2017-11-17T17:55:47.416Z,168.23
2017-11-17T17:58:14.871Z,167.50
2017-11-17T18:00:42.295Z,148.73
2017-11-17T18:03:10.518Z,169.67
2017-11-17T18:05:37.952Z,140.80
2017-11-17T18:08:05.389Z,150.43
2017-11-17T18:10:32.822Z,160.27
2017-11-17T18:13:00.261Z,168.77
2017-11-17T18:15:28.462Z,158.20
2017-11-17T18:17:56.669Z,145.90
2017-11-17T18:20:24.103Z,150.17
2017-11-17T18:22:52.344Z,163.97
2017-11-17T18:25:19.817Z,154.70
2017-11-17T18:27:47.219Z,158.43
2017-11-17T18:30:14.642Z,161.33
2017-11-17T18:32:42.892Z,152.20
2017-11-17T18:35:12.260Z,134.97
2017-11-17T18:37:40.432Z,140.80
2017-11-17T18:40:07.917Z,159.80
2017-11-17T18:42:35.304Z,162.00
2017-11-17T18:45:03.530Z,135.87
2017-11-17T18:47:30.953Z,156.70
2017-11-17T18:49:59.191Z,140.47
2017-11-17T18:52:27.411Z,153.83
2017-11-17T18:54:54.820Z,129.60
2017-11-17T18:57:22.298Z,151.10
2017-11-17T18:59:49.706Z,143.97
2017-11-17T19:02:17.179Z,138.00
2017-11-17T19:04:44.579Z,150.27
2017-11-17T19:07:12.789Z,144.20
2017-11-17T19:09:42.182Z,130.50
2017-11-17T19:12:10.364Z,164.20
2017-11-17T19:14:37.826Z,139.17
2017-11-17T19:17:05.238Z,137.07
2017-11-17T19:19:32.686Z,140.40
2017-11-17T19:22:00.119Z,135.17
2017-11-17T19:24:27.561Z,142.10
2017-11-17T19:26:54.993Z,146.07
2017-11-17T19:29:22.445Z,133.93
2017-11-17T19:31:49.873Z,137.87
2017-11-17T19:34:17.314Z,152.27
2017-11-17T19:36:44.751Z,128.97
2017-11-17T19:39:12.182Z,137.17
2017-11-17T19:41:39.638Z,136.13
2017-11-17T19:44:07.080Z,133.97
2017-11-17T19:46:38.931Z,146.97
2017-11-17T19:49:07.130Z,130.80
2017-11-17T19:51:34.566Z,141.97
2017-11-17T19:54:02.791Z,140.93
2017-11-17T19:56:30.246Z,144.63
2017-11-17T19:58:57.668Z,133.83
2017-11-17T20:01:25.111Z,118.40
2017-11-17T20:03:53.310Z,143.17
2017-11-17T20:06:20.754Z,134.60
2017-11-17T20:08:48.966Z,120.67
2017-11-17T20:11:16.413Z,133.37
2017-11-17T20:13:43.848Z,114.93
2017-11-17T20:16:11.290Z,124.17
2017-11-17T20:18:39.501Z,129.13
2017-11-17T20:21:06.942Z,137.60
2017-11-17T20:23:34.388Z,126.13
2017-11-17T20:26:06.122Z,134.33
2017-11-17T20:28:33.573Z,132.50
2017-11-17T20:31:01.005Z,142.27
2017-11-17T20:33:28.447Z,127.50
2017-11-17T20:35:55.878Z,129.23
2017-11-17T20:38:23.326Z,126.37
2017-11-17T20:40:51.591Z,131.83
2017-11-17T20:43:19.024Z,116.93
2017-11-17T20:45:46.461Z,127.13
2017-11-17T20:48:13.907Z,116.87
2017-11-17T20:50:45.114Z,103.23
2017-11-17T20:53:14.180Z,131.57
2017-11-17T20:55:41.619Z,120.87
2017-11-17T20:58:09.065Z,122.07
2017-11-17T21:00:36.508Z,125.67
2017-11-17T21:03:03.945Z,119.77
2017-11-17T21:05:31.398Z,117.37
2017-11-17T21:07:59.630Z,112.43
2017-11-17T21:10:27.065Z,115.20
2017-11-17T21:12:54.512Z,129.17
2017-11-17T21:15:21.946Z,117.83
2017-11-17T21:17:50.148Z,121.90
2017-11-17T21:20:17.585Z,122.90
2017-11-17T21:22:45.022Z,117.13
2017-11-17T21:25:12.478Z,120.37
2017-11-17T21:27:39.915Z,109.03
2017-11-17T21:30:07.370Z,120.03
2017-11-17T21:32:35.582Z,117.60
2017-11-17T21:35:03.798Z,112.97
2017-11-17T21:37:31.247Z,117.87
2017-11-17T21:39:58.681Z,119.60
2017-11-17T21:42:26.118Z,116.57
2017-11-17T21:44:54.318Z,130.70
2017-11-17T21:47:21.759Z,122.70
2017-11-17T21:49:49.960Z,127.80
2017-11-17T21:52:17.421Z,123.43
2017-11-17T21:54:44.837Z,125.30
2017-11-17T21:57:12.274Z,125.27
2017-11-17T21:59:39.744Z,127.80
2017-11-17T22:02:07.205Z,127.90
2017-11-17T22:04:34.642Z,122.50
2017-11-17T22:07:02.115Z,129.23
2017-11-17T22:09:29.560Z,154.70
2017-11-17T22:11:56.976Z,136.83
2017-11-17T22:14:24.426Z,142.30
2017-11-17T22:16:51.862Z,145.67
2017-11-17T22:19:19.303Z,121.67
2017-11-17T22:21:46.747Z,168.90
2017-11-17T22:24:14.183Z,153.83
2017-11-17T22:26:41.623Z,147.23
2017-11-17T22:29:09.062Z,142.50
2017-11-17T22:31:36.493Z,150.57
2017-11-17T22:34:04.702Z,136.37
2017-11-17T22:36:32.135Z,138.33
2017-11-17T22:39:00.410Z,151.50
2017-11-17T22:41:27.830Z,136.37
2017-11-17T22:43:55.267Z,149.73
2017-11-17T22:46:22.702Z,176.70
2017-11-17T22:48:50.138Z,153.70
2017-11-17T22:51:18.367Z,154.20
2017-11-17T22:53:45.814Z,111.80
2017-11-17T22:56:13.262Z,128.37
2017-11-17T22:58:40.702Z,131.93
2017-11-17T23:01:08.241Z,134.97
2017-11-17T23:03:36.443Z,124.47
2017-11-17T23:06:03.916Z,139.87
2017-11-17T23:08:31.336Z,132.93
2017-11-17T23:11:00.842Z,129.30
2017-11-17T23:13:28.278Z,120.07
2017-11-17T23:15:55.722Z,131.33
2017-11-17T23:18:23.162Z,138.77
2017-11-17T23:20:50.609Z,122.83
2017-11-17T23:23:18.039Z,142.33
2017-11-17T23:25:45.497Z,128.90
2017-11-17T23:28:12.945Z,140.27
2017-11-17T23:30:40.387Z,132.67
2017-11-17T23:33:08.613Z,131.67
2017-11-17T23:35:36.046Z,125.60
2017-11-17T23:38:03.486Z,135.70
2017-11-17T23:40:31.693Z,113.37
2017-11-17T23:42:59.150Z,137.63
2017-11-17T23:45:26.584Z,133.93
2017-11-17T23:47:54.125Z,121.00
2017-11-17T23:50:21.570Z,121.73
2017-11-17T23:52:49.075Z,121.43
2017-11-17T23:55:16.516Z,125.60
2017-11-17T23:57:43.977Z,141.47
